Time;durP1;ratioP1;P1;durP2;ratioP2;P2;SDS_P1;SDS_P2;PMS_P1;PMS_P2;Temp;Humidity;BMP_temperature;BMP_pressure;BME280_temperature;BME280_humidity;BME280_pressure;Samples;Min_cycle;Max_cycle;Signal;HPM_P1;HPM_P2
2023/04/09 00:02:10;;;;;;;61.50;40.03;;;;;;;;;;5075993;28;20413;-79
2023/04/09 00:04:36;;;;;;;63.08;40.53;;;;;;;;;;5075888;28;20406;-80
2023/04/09 00:07:02;;;;;;;63.45;39.50;;;;;;;;;;5059028;28;20395;-78
2023/04/09 00:09:29;;;;;;;66.15;41.72;;;;;;;;;;5075697;28;20398;-79
2023/04/09 00:11:55;;;;;;;67.20;40.73;;;;;;;;;;5058727;28;20425;-79
2023/04/09 00:14:22;;;;;;;68.50;42.30;;;;;;;;;;5075083;28;20432;-79
2023/04/09 00:16:48;;;;;;;66.10;41.60;;;;;;;;;;5058861;28;20426;-79
2023/04/09 00:19:14;;;;;;;66.68;41.47;;;;;;;;;;5075486;28;20898;-79
2023/04/09 00:21:40;;;;;;;66.70;42.60;;;;;;;;;;5075420;28;20881;-79
2023/04/09 00:24:06;;;;;;;72.82;43.65;;;;;;;;;;5075566;28;20788;-79
2023/04/09 00:26:32;;;;;;;74.70;44.50;;;;;;;;;;5075421;28;20927;-79
2023/04/09 00:28:58;;;;;;;71.93;43.10;;;;;;;;;;5075545;28;20485;-79
2023/04/09 00:31:24;;;;;;;74.97;44.28;;;;;;;;;;5058572;28;20429;-80
2023/04/09 00:33:50;;;;;;;74.32;43.78;;;;;;;;;;5075036;28;20452;-79
2023/04/09 00:36:16;;;;;;;69.95;44.95;;;;;;;;;;5058913;28;20738;-80
2023/04/09 00:38:42;;;;;;;76.80;46.27;;;;;;;;;;5075114;28;20482;-79
2023/04/09 00:41:08;;;;;;;75.43;44.95;;;;;;;;;;5058500;28;20437;-79
2023/04/09 00:43:34;;;;;;;77.10;44.38;;;;;;;;;;5075161;28;20410;-79
2023/04/09 00:46:01;;;;;;;75.10;43.17;;;;;;;;;;5058300;28;20402;-79
2023/04/09 00:48:27;;;;;;;73.82;45.38;;;;;;;;;;5058588;28;20527;-79
2023/04/09 00:50:53;;;;;;;78.85;43.40;;;;;;;;;;5074767;28;20476;-79
2023/04/09 00:53:19;;;;;;;76.13;42.28;;;;;;;;;;5058345;28;20516;-80
2023/04/09 00:55:45;;;;;;;74.97;42.30;;;;;;;;;;5074716;28;20397;-79
2023/04/09 00:58:11;;;;;;;74.70;43.33;;;;;;;;;;5074576;28;20405;-78
2023/04/09 01:00:37;;;;;;;76.82;43.50;;;;;;;;;;5058507;28;20496;-78
2023/04/09 01:03:05;;;;;;;71.85;41.67;;;;;;;;;;5074617;28;20398;-78
2023/04/09 01:05:36;;;;;;;75.97;43.13;;;;;;;;;;5058541;28;20485;-78
2023/04/09 01:08:05;;;;;;;78.28;45.67;;;;;;;;;;5074652;28;20405;-79
2023/04/09 01:10:34;;;;;;;78.33;45.30;;;;;;;;;;5074478;28;20446;-79
2023/04/09 01:13:08;;;;;;;78.30;43.25;;;;;;;;;;5074299;28;20442;-79
2023/04/09 01:15:36;;;;;;;81.22;43.58;;;;;;;;;;5074251;28;20886;-79
2023/04/09 01:18:06;;;;;;;79.35;45.92;;;;;;;;;;5074350;28;20401;-79
2023/04/09 01:20:39;;;;;;;80.77;44.60;;;;;;;;;;5057508;28;20437;-79
2023/04/09 01:23:43;;;;;;;79.30;43.50;;;8.20;99.90;;;;;;5057764;28;20390;-79
2023/04/09 01:26:09;;;;;;;82.65;45.03;;;;;;;;;;5053420;28;20407;-79
2023/04/09 01:28:50;;;;;;;79.85;44.15;;;;;;;;;;5070979;28;20887;-79
2023/04/09 01:31:20;;;;;;;78.35;45.10;;;;;;;;;;5053932;28;20419;-80
2023/04/09 01:33:46;;;;;;;73.80;43.92;;;;;;;;;;5054280;28;20411;-79
2023/04/09 01:36:13;;;;;;;74.43;43.30;;;;;;;;;;5054344;28;20530;-79
2023/04/09 01:38:41;;;;;;;74.53;41.05;;;;;;;;;;5054079;28;20438;-79
2023/04/09 01:41:08;;;;;;;73.63;41.65;;;;;;;;;;5054208;28;20400;-79
2023/04/09 01:43:34;;;;;;;69.30;39.75;;;;;;;;;;5070563;28;20412;-79
2023/04/09 01:46:02;;;;;;;73.18;39.00;;;;;;;;;;5070816;28;20396;-80
2023/04/09 01:48:29;;;;;;;71.17;39.10;;;;;;;;;;5070527;28;20887;-80
2023/04/09 01:50:56;;;;;;;73.47;41.88;;;;;;;;;;5037395;28;20427;-80
2023/04/09 01:53:22;;;;;;;74.97;40.28;;;;;;;;;;5070685;28;20402;-79
2023/04/09 01:55:48;;;;;;;74.50;39.22;;;;;;;;;;5053847;28;20400;-79
2023/04/09 01:58:14;;;;;;;68.97;39.10;;;;;;;;;;5070350;28;20925;-79
2023/04/09 02:00:46;;;;;;;67.88;38.10;;;;;;;;;;5070504;28;20418;-79
2023/04/09 02:03:15;;;;;;;69.00;37.88;;;;;;;;;;5070388;28;20399;-79
2023/04/09 02:05:44;;;;;;;69.73;37.17;;;;;;;;;;5070226;28;20399;-79
2023/04/09 02:08:12;;;;;;;67.95;37.03;;;;;;;;;;5053507;28;20461;-79
2023/04/09 02:10:38;;;;;;;53.17;33.30;;;;;;;;;;5053397;28;20400;-79
2023/04/09 02:13:05;;;;;;;55.30;32.47;;;;;;;;;;5070221;28;20412;-80
2023/04/09 02:15:31;;;;;;;50.38;30.63;;;;;;;;;;5053491;28;20395;-79
2023/04/09 02:17:57;;;;;;;49.03;29.20;;;;;;;;;;5070155;28;20917;-80
2023/04/09 02:20:23;;;;;;;50.80;30.05;;;;;;;;;;5070014;28;20402;-79
2023/04/09 02:22:50;;;;;;;54.03;29.83;;;;;;;;;;5070395;28;20403;-79
2023/04/09 02:25:16;;;;;;;50.92;29.17;;;;;;;;;;5053203;28;20533;-79
2023/04/09 02:27:42;;;;;;;49.75;28.70;;;;;;;;;;5053466;28;20407;-79
2023/04/09 02:30:08;;;;;;;49.65;29.35;;;;;;;;;;5070123;28;20457;-79
2023/04/09 02:32:34;;;;;;;49.20;29.90;;;;;;;;;;5069891;28;20529;-78
2023/04/09 02:35:00;;;;;;;50.63;29.48;;;;;;;;;;5053490;28;20400;-79
2023/04/09 02:37:26;;;;;;;56.35;30.95;;;;;;;;;;5040462;28;20729;-79
2023/04/09 02:39:52;;;;;;;49.88;29.70;;;;;;;;;;5074222;28;20396;-79
2023/04/09 02:42:18;;;;;;;50.92;29.60;;;;;;;;;;5073949;28;20411;-80
2023/04/09 02:44:45;;;;;;;50.75;29.75;;;;;;;;;;5073936;28;20891;-79
2023/04/09 02:47:11;;;;;;;56.47;29.77;;;;;;;;;;5074167;28;20421;-78
2023/04/09 02:49:37;;;;;;;53.30;29.80;;;;;;;;;;5057006;28;20411;-79
2023/04/09 02:52:03;;;;;;;53.65;30.65;;;;;;;;;;5073694;28;20423;-78
2023/04/09 02:54:29;;;;;;;53.67;30.60;;;;;;;;;;5057353;28;20422;-78
2023/04/09 02:56:55;;;;;;;50.40;29.77;;;;;;;;;;5040470;28;20411;-78
2023/04/09 02:59:21;;;;;;;53.90;30.47;;;;;;;;;;5057306;28;20411;-78
2023/04/09 03:01:47;;;;;;;51.13;30.98;;;;;;;;;;5073560;28;20483;-79
2023/04/09 03:04:13;;;;;;;56.35;30.70;;;;;;;;;;5056861;28;20456;-79
2023/04/09 03:06:39;;;;;;;54.23;31.00;;;;;;;;;;5040318;28;20442;-79
2023/04/09 03:09:05;;;;;;;55.05;31.63;;;;;;;;;;5056837;28;20915;-79
2023/04/09 03:11:31;;;;;;;52.53;30.80;;;;;;;;;;5056649;28;20438;-79
2023/04/09 03:13:57;;;;;;;52.63;31.02;;;;;;;;;;5056977;28;20410;-79
2023/04/09 03:16:25;;;;;;;54.35;30.35;;;;;;;;;;5056672;28;20661;-79
2023/04/09 03:18:51;;;;;;;53.88;29.42;;;;;;;;;;5073218;28;21417;-78
2023/04/09 03:21:17;;;;;;;51.47;30.17;;;;;;;;;;5056793;28;20395;-78
2023/04/09 03:23:43;;;;;;;50.88;30.30;;;;;;;;;;5056784;28;20737;-79
2023/04/09 03:26:09;;;;;;;51.58;29.73;;;;;;;;;;5056250;28;20886;-79
2023/04/09 03:28:35;;;;;;;55.10;31.50;;;;;;;;;;5072953;28;20403;-79
2023/04/09 03:31:01;;;;;;;54.25;31.33;;;;;;;;;;5056340;28;20931;-78
2023/04/09 03:33:27;;;;;;;55.72;31.20;;;;;;;;;;5056475;28;20431;-80
2023/04/09 03:35:53;;;;;;;52.35;29.65;;;;;;;;;;5056532;28;20406;-79
2023/04/09 03:38:19;;;;;;;54.88;30.67;;;;;;;;;;5056220;28;20395;-79
2023/04/09 03:40:46;;;;;;;51.50;29.60;;;;;;;;;;5056060;28;20900;-78
2023/04/09 03:43:12;;;;;;;52.63;30.42;;;;;;;;;;5072882;28;20458;-78
2023/04/09 03:45:38;;;;;;;54.13;31.30;;;;;;;;;;5039597;28;20396;-78
2023/04/09 03:48:04;;;;;;;51.60;30.42;;;;;;;;;;5038505;28;20887;-79
2023/04/09 03:50:30;;;;;;;53.47;31.43;;;;;;;;;;5055928;28;20477;-79
2023/04/09 03:52:56;;;;;;;54.08;30.73;;;;;;;;;;5055894;28;20896;-78
2023/04/09 03:55:23;;;;;;;52.15;30.83;;;;;;;;;;5056076;28;20395;-79
2023/04/09 03:57:49;;;;;;;57.70;31.55;;;;;;;;;;5056310;28;20403;-79
2023/04/09 04:00:15;;;;;;;59.80;32.33;;;;;;;;;;5072676;28;20481;-79
2023/04/09 04:02:41;;;;;;;55.85;31.98;;;;;;;;;;5072708;28;20450;-79
2023/04/09 04:05:07;;;;;;;58.47;32.83;;;;;;;;;;5072516;28;20410;-79
2023/04/09 04:07:33;;;;;;;58.72;32.33;;;;;;;;;;5072553;28;20400;-79
2023/04/09 04:09:59;;;;;;;59.73;33.27;;;;;;;;;;5072259;28;20407;-79
2023/04/09 04:12:25;;;;;;;59.10;33.40;;;;;;;;;;5055348;28;20939;-79
2023/04/09 04:14:51;;;;;;;59.17;33.00;;;;;;;;;;5072792;28;20399;-79
2023/04/09 04:17:17;;;;;;;57.13;34.00;;;;;;;;;;5039393;28;20400;-79
2023/04/09 04:19:43;;;;;;;60.33;32.78;;;;;;;;;;5073640;28;20826;-79
2023/04/09 04:22:09;;;;;;;57.15;32.92;;;;;;;;;;5074498;28;20399;-79
2023/04/09 04:24:35;;;;;;;55.00;33.63;;;;;;;;;;5074540;28;20412;-79
2023/04/09 04:27:01;;;;;;;59.58;33.65;;;;;;;;;;5074551;28;20400;-79
2023/04/09 04:29:27;;;;;;;58.88;34.10;;;;;;;;;;5055802;28;20403;-79
2023/04/09 04:31:54;;;;;;;56.93;32.90;;;;;;;;;;5055844;28;20434;-79
2023/04/09 04:34:20;;;;;;;58.42;33.25;;;;;;;;;;5056020;28;20457;-79
2023/04/09 04:36:46;;;;;;;59.75;33.25;;;;;;;;;;5074548;28;20432;-79
2023/04/09 04:39:12;;;;;;;60.95;33.90;;;;;;;;;;5059849;28;20896;-78
2023/04/09 04:41:38;;;;;;;58.88;34.65;;;;;;;;;;5061371;28;20411;-79
2023/04/09 04:44:04;;;;;;;59.80;33.65;;;;;;;;;;5078649;28;20434;-79
2023/04/09 04:46:30;;;;;;;57.60;33.15;;;;;;;;;;5063088;28;20491;-79
2023/04/09 04:48:56;;;;;;;59.50;34.58;;;;;;;;;;5055917;28;20404;-78
2023/04/09 04:51:22;;;;;;;56.17;32.42;;;;;;;;;;5072215;28;20451;-78
2023/04/09 04:53:48;;;;;;;59.70;33.20;;;;;;;;;;5072509;28;20400;-79
2023/04/09 04:56:14;;;;;;;58.05;32.63;;;;;;;;;;5075455;28;20955;-79
2023/04/09 04:58:41;;;;;;;60.10;33.75;;;;;;;;;;5075743;28;20400;-79
2023/04/09 05:01:07;;;;;;;58.17;32.15;;;;;;;;;;5055384;28;20437;-79
2023/04/09 05:03:33;;;;;;;53.63;32.45;;;;;;;;;;5071450;28;20400;-80
2023/04/09 05:05:59;;;;;;;59.25;33.35;;;;;;;;;;5071308;28;20482;-79
2023/04/09 05:08:25;;;;;;;54.40;31.45;;;;;;;;;;5071124;28;20973;-79
2023/04/09 05:10:54;;;;;;;53.08;31.08;;;;;;;;;;5054761;28;20844;-79
2023/04/09 05:13:21;;;;;;;50.60;31.30;;;;;;;;;;5071285;28;20411;-79
2023/04/09 05:15:47;;;;;;;51.85;30.42;;;;;;;;;;5054655;28;20406;-79
2023/04/09 05:18:13;;;;;;;51.08;29.92;;;;;;;;;;5054486;28;20411;-79
2023/04/09 05:20:39;;;;;;;47.90;28.80;;;;;;;;;;5037821;28;20451;-79
2023/04/09 05:23:05;;;;;;;46.53;28.23;;;;;;;;;;5054228;28;20407;-79
2023/04/09 05:25:31;;;;;;;43.97;28.10;;;;;;;;;;5054063;28;20415;-79
2023/04/09 05:27:57;;;;;;;43.40;27.90;;;;;;;;;;5054386;28;20549;-80
2023/04/09 05:30:23;;;;;;;44.15;27.92;;;;;;;;;;5070619;28;20401;-79
2023/04/09 05:32:49;;;;;;;44.97;28.33;;;;;;;;;;5070560;28;20430;-79
2023/04/09 05:35:15;;;;;;;43.70;27.65;;;;;;;;;;5070792;28;20403;-79
2023/04/09 05:37:41;;;;;;;43.97;27.30;;;;;;;;;;5070660;28;20407;-79
2023/04/09 05:40:08;;;;;;;47.75;27.67;;;;;;;;;;5054193;28;20427;-79
2023/04/09 05:42:34;;;;;;;44.67;27.55;;;;;;;;;;5070778;28;20510;-79
2023/04/09 05:45:00;;;;;;;42.90;26.60;;;;;;;;;;5070562;28;20399;-79
2023/04/09 05:47:27;;;;;;;41.78;26.98;;;;;;;;;;5054028;28;20895;-79
2023/04/09 05:49:53;;;;;;;42.35;27.30;;;;;;;;;;5070842;28;20403;-79
2023/04/09 05:52:20;;;;;;;41.22;26.63;;;;;;;;;;5053808;28;20427;-79
2023/04/09 05:54:46;;;;;;;41.20;27.25;;;;;;;;;;5037602;28;20471;-79
2023/04/09 05:57:12;;;;;;;37.53;25.17;;;;;;;;;;5070476;28;20427;-79
2023/04/09 05:59:38;;;;;;;37.15;24.00;;;;;;;;;;5070480;28;20903;-79
2023/04/09 06:02:04;;;;;;;39.88;26.85;;;;;;;;;;5037173;28;20399;-79
2023/04/09 06:04:30;;;;;;;40.60;27.05;;;;;;;;;;5053632;28;20457;-79
2023/04/09 06:06:59;;;;;;;37.30;25.45;;;;;;;;;;5070300;28;20518;-80
2023/04/09 06:09:26;;;;;;;39.45;27.25;;;;;;;;;;5054244;28;20403;-80
2023/04/09 06:11:52;;;;;;;39.05;26.45;;;;;;;;;;5069607;28;20690;-81
2023/04/09 06:14:18;;;;;;;39.60;26.60;;;;;;;;;;5070609;28;20721;-79
2023/04/09 06:16:44;;;;;;;41.97;27.30;;;;;;;;;;5070473;28;20457;-80
2023/04/09 06:19:11;;;;;;;39.35;26.02;;;;;;;;;;5053966;28;20744;-80
2023/04/09 06:21:37;;;;;;;41.90;26.58;;;;;;;;;;5053790;28;20465;-80
2023/04/09 06:24:04;;;;;;;40.53;25.97;;;;;;;;;;5037759;28;20860;-81
2023/04/09 06:26:30;;;;;;;39.35;26.20;;;;;;;;;;5090537;28;20406;-80
2023/04/09 06:28:56;;;;;;;40.42;27.67;;;;;;;;;;5057020;28;20409;-78
2023/04/09 06:31:22;;;;;;;40.10;27.10;;;;;;;;;;5056883;28;20410;-79
2023/04/09 06:33:48;;;;;;;38.95;25.70;;;;;;;;;;5040122;28;20410;-79
2023/04/09 06:36:14;;;;;;;40.28;27.15;;;;;;;;;;5073341;28;20441;-78
2023/04/09 06:38:40;;;;;;;40.47;26.77;;;;;;;;;;5073161;28;20485;-79
2023/04/09 06:41:07;;;;;;;39.78;28.00;;;;;;;;;;5073251;28;20891;-80
2023/04/09 06:43:35;;;;;;;39.50;25.87;;;;;;;;;;5056768;28;20449;-79
2023/04/09 06:46:01;;;;;;;42.47;29.77;;;;;;;;;;5073758;28;20402;-79
2023/04/09 06:48:28;;;;;;;42.70;28.17;;;;;;;;;;5057580;28;20397;-79
2023/04/09 06:50:54;;;;;;;42.00;26.38;;;;;;;;;;5057079;28;20569;-79
2023/04/09 06:53:20;;;;;;;41.22;26.88;;;;;;;;;;5073806;28;20539;-79
2023/04/09 06:55:46;;;;;;;41.63;26.80;;;;;;;;;;5074069;28;20912;-80
2023/04/09 06:58:12;;;;;;;38.13;25.70;;;;;;;;;;5074171;28;20483;-79
2023/04/09 07:00:38;;;;;;;38.10;25.60;;;;;;;;;;5057502;28;20408;-79
2023/04/09 07:03:06;;;;;;;37.25;24.83;;;;;;;;;;5073777;28;20894;-79
2023/04/09 07:05:32;;;;;;;37.92;25.77;;;;;;;;;;5057185;28;20461;-79
2023/04/09 07:07:58;;;;;;;37.10;26.65;;;;;;;;;;5057294;28;20404;-79
2023/04/09 07:10:24;;;;;;;35.63;25.83;;;;;;;;;;5073664;28;20901;-80
2023/04/09 07:12:50;;;;;;;38.45;24.48;;;;;;;;;;5056978;28;20422;-79
2023/04/09 07:15:17;;;;;;;36.00;24.52;;;;;;;;;;5057147;28;20473;-80
2023/04/09 07:17:43;;;;;;;34.95;24.25;;;;;;;;;;5057644;28;20531;-79
2023/04/09 07:20:09;;;;;;;37.00;24.50;;;;;;;;;;5057058;28;20390;-79
2023/04/09 07:22:35;;;;;;;36.80;24.25;;;;;;;;;;5057816;28;20393;-79
2023/04/09 07:25:01;;;;;;;36.75;24.30;;;;;;;;;;5077215;28;20418;-79
2023/04/09 07:27:28;;;;;;;38.45;24.80;;;;;;;;;;5078191;28;20928;-79
2023/04/09 07:29:55;;;;;;;36.78;24.88;;;;;;;;;;5077150;28;20425;-79
2023/04/09 07:32:21;;;;;;;36.03;23.95;;;;;;;;;;5060457;28;20498;-80
2023/04/09 07:34:47;;;;;;;36.40;24.42;;;;;;;;;;5077131;28;20400;-80
2023/04/09 07:37:13;;;;;;;38.53;25.83;;;;;;;;;;5077085;28;20415;-79
2023/04/09 07:39:42;;;;;;;37.30;24.70;;;;;;;;;;5077576;28;20421;-80
2023/04/09 07:42:08;;;;;;;38.40;25.35;;;;;;;;;;5077280;28;20409;-80
2023/04/09 07:44:35;;;;;;;37.72;25.60;;;;;;;;;;5077106;28;20445;-80
2023/04/09 07:47:04;;;;;;;38.53;24.33;;;;;;;;;;5077144;28;20398;-80
2023/04/09 07:49:31;;;;;;;37.55;24.77;;;;;;;;;;5059956;28;20398;-80
2023/04/09 07:51:59;;;;;;;38.85;25.52;;;;;;;;;;5060087;28;21000;-80
2023/04/09 07:54:25;;;;;;;38.55;26.35;;;;;;;;;;5076901;28;20402;-79
2023/04/09 07:56:51;;;;;;;38.60;26.92;;;;;;;;;;5060055;28;20394;-79
2023/04/09 07:59:17;;;;;;;39.88;26.67;;;;;;;;;;5060089;28;20425;-80
2023/04/09 08:01:45;;;;;;;39.47;26.37;;;;;;;;;;5076498;28;20465;-80
2023/04/09 08:04:12;;;;;;;41.13;26.80;;;;;;;;;;5076581;28;20459;-80
2023/04/09 08:06:39;;;;;;;39.90;26.20;;;;;;;;;;5059579;28;20731;-80
2023/04/09 08:09:05;;;;;;;40.90;26.58;;;;;;;;;;5076305;28;20409;-80
2023/04/09 08:11:31;;;;;;;41.92;26.15;;;;;;;;;;5059704;28;20417;-80
2023/04/09 08:14:00;;;;;;;39.38;25.75;;;;;;;;;;5076285;28;20477;-80
2023/04/09 08:16:26;;;;;;;40.38;27.05;;;;;;;;;;5076411;28;20398;-80
2023/04/09 08:18:53;;;;;;;40.53;25.87;;;;;;;;;;5059521;28;20402;-80
2023/04/09 08:21:19;;;;;;;39.67;26.42;;;;;;;;;;5075889;28;20484;-79
2023/04/09 08:23:45;;;;;;;40.50;26.05;;;;;;;;;;5075836;28;20921;-80
2023/04/09 08:26:16;;;;;;;39.97;26.83;;;;;;;;;;5059208;28;20731;-80
2023/04/09 08:28:42;;;;;;;41.42;26.75;;;;;;;;;;5075868;28;20413;-80
2023/04/09 08:31:11;;;;;;;39.80;25.92;;;;;;;;;;5076161;28;20429;-79
2023/04/09 08:33:37;;;;;;;41.22;26.52;;;;;;;;;;5058720;28;20402;-80
2023/04/09 08:36:07;;;;;;;41.40;26.85;;;;;;;;;;5093873;28;20457;-80
2023/04/09 08:38:33;;;;;;;43.28;26.40;;;;;;;;;;5059078;28;20436;-78
2023/04/09 08:40:59;;;;;;;40.00;26.33;;;;;;;;;;5059048;28;20402;-79
2023/04/09 08:43:27;;;;;;;40.80;26.70;;;;;;;;;;5075766;28;20428;-79
2023/04/09 08:45:56;;;;;;;42.55;26.73;;;;;;;;;;5059401;28;20405;-80
2023/04/09 08:48:24;;;;;;;39.50;25.63;;;;;;;;;;5059457;28;20402;-79
2023/04/09 08:50:50;;;;;;;40.55;26.02;;;;;;;;;;5058888;28;20417;-79
2023/04/09 08:53:17;;;;;;;42.33;26.80;;;;;;;;;;5075783;28;20398;-78
2023/04/09 08:55:46;;;;;;;42.92;27.55;;;;;;;;;;5075790;28;20421;-79
2023/04/09 08:58:12;;;;;;;40.50;26.05;;;;;;;;;;5058502;28;20398;-79
2023/04/09 09:00:39;;;;;;;42.45;27.70;;;;;;;;;;5058509;28;20911;-79
2023/04/09 09:03:07;;;;;;;42.00;28.20;;;;;;;;;;5075569;28;20420;-80
2023/04/09 09:05:40;;;;;;;41.85;27.58;;;;;;;;;;5059258;28;20413;-79
2023/04/09 09:08:07;;;;;;;44.58;28.33;;;;;;;;;;5059044;28;20402;-79
2023/04/09 09:10:43;;;;;;;42.45;27.50;;;;;;;;;;5075024;28;20481;-79
2023/04/09 09:13:24;;;;;;;43.60;27.90;;;;;;;;;;5074989;28;20409;-80
2023/04/09 09:15:55;;;;;;;43.00;27.08;;;;;;;;;;5074821;28;20902;-79
2023/04/09 09:18:43;;;;;;;42.28;26.83;;;;;;;;;;5074294;28;20413;-80
2023/04/09 09:21:10;;;;;;;43.88;26.60;;;;;;;;;;5057579;28;20425;-79
2023/04/09 09:23:37;;;;;;;43.40;27.27;;;;;;;;;;5057574;28;20401;-79
2023/04/09 09:26:19;;;;;;;41.40;27.75;;;;;;;;;;5073857;28;20418;-80
2023/04/09 09:28:47;;;;;;;44.72;29.02;;;;;;;;;;5074501;28;20484;-78
2023/04/09 09:31:13;;;;;;;41.92;27.92;;;;;;;;;;5074429;28;20500;-79
2023/04/09 09:33:40;;;;;;;41.47;28.10;;;;;;;;;;5057303;28;20398;-80
2023/04/09 09:36:08;;;;;;;44.65;29.42;;;;;;;;;;5074285;28;20401;-79
2023/04/09 09:38:34;;;;;;;43.08;30.40;;;;;;;;;;5073944;28;20401;-79
2023/04/09 09:41:15;;;;;;;42.95;28.45;;;;;;;;;;5057681;28;20746;-79
2023/04/09 09:43:42;;;;;;;42.17;28.37;;;;;;;;;;5073800;28;20533;-79
2023/04/09 09:46:08;;;;;;;41.50;28.38;;;;;;;;;;5073477;28;20912;-80
2023/04/09 09:48:34;;;;;;;41.72;28.63;;;;;;;;;;5057032;28;20400;-79
2023/04/09 09:51:02;;;;;;;44.90;29.23;;;;;;;;;;5057231;28;20806;-79
2023/04/09 09:53:29;;;;;;;40.78;27.52;;;;;;;;;;5057385;28;20685;-80
2023/04/09 09:55:56;;;;;;;43.13;28.13;;;;;;;;;;5056807;28;20398;-80
2023/04/09 09:58:24;;;;;;;39.50;26.67;;;;;;;;;;5073602;28;20394;-79
2023/04/09 10:00:51;;;;;;;37.30;25.88;;;;;;;;;;5057049;28;20528;-79
2023/04/09 10:03:27;;;;;;;35.40;24.90;;;;;;;;;;5073683;28;20399;-80
2023/04/09 10:05:55;;;;;;;39.13;26.15;;;;;;;;;;5057001;28;20430;-80
2023/04/09 10:08:22;;;;;;;36.53;26.20;;;;;;;;;;5073949;28;20485;-80
2023/04/09 10:10:48;;;;;;;36.08;25.33;;;;;;;;;;5073805;28;20401;-79
2023/04/09 10:13:33;;;;;;;39.95;27.45;;;;;;;;;;5058362;28;20495;-80
2023/04/09 10:16:00;;;;;;;36.80;26.98;;;;;;;;;;5059451;28;20398;-80
2023/04/09 10:18:26;;;;;;;39.15;26.20;;;;;;;;;;5074580;28;20746;-80
2023/04/09 10:21:01;;;;;;;36.53;25.50;;;;;;;;;;5057719;28;20738;-80
2023/04/09 10:23:33;;;;;;;37.05;25.30;;;;;;;;;;5078469;28;20413;-80
2023/04/09 10:25:59;;;;;;;37.73;25.70;;;;;;;;;;5078623;28;20402;-80
2023/04/09 10:28:26;;;;;;;36.35;25.95;;;;;;;;;;5074915;28;20485;-80
2023/04/09 10:30:53;;;;;;;36.87;25.80;;;;;;;;;;5073901;28;20408;-79
2023/04/09 10:33:26;;;;;;;35.63;24.83;;;;;;;;;;5057163;28;20447;-80
2023/04/09 10:36:04;;;;;;;34.03;24.85;;;11.50;99.90;;;;;;5056852;28;20813;-80
2023/04/09 10:38:39;;;;;;;38.13;25.58;;;11.80;99.90;;;;;;5057639;28;20398;-80
2023/04/09 10:41:06;;;;;;;35.92;26.17;;;;;;;;;;5107991;28;20784;-79
2023/04/09 10:43:34;;;;;;;37.88;25.50;;;;;;;;;;5057220;28;20417;-80
2023/04/09 10:46:00;;;;;;;35.90;25.35;;;;;;;;;;5074363;28;20951;-80
2023/04/09 10:48:27;;;;;;;35.55;25.50;;;;;;;;;;5074657;28;20402;-80
2023/04/09 10:50:54;;;;;;;35.92;26.35;;;;;;;;;;5057276;28;20748;-80
2023/04/09 10:53:22;;;;;;;37.00;25.48;;;;;;;;;;5073841;28;20402;-79
2023/04/09 10:55:52;;;;;;;33.20;24.40;;;;;;;;;;5073559;28;20443;-79
2023/04/09 10:58:19;;;;;;;36.28;25.77;;;;;;;;;;5076540;28;20454;-79
2023/04/09 11:00:46;;;;;;;35.90;25.00;;;;;;;;;;5077709;28;20393;-79
2023/04/09 11:03:31;;;;;;;35.72;25.70;;;;;;;;;;5060521;28;20404;-79
2023/04/09 11:05:59;;;;;;;32.72;23.98;;;;;;;;;;5078518;28;20406;-79
2023/04/09 11:08:28;;;;;;;32.75;23.73;;;;;;;;;;5077067;28;20473;-79
2023/04/09 11:10:57;;;;;;;32.45;23.52;;;;;;;;;;5060929;28;20401;-79
2023/04/09 11:13:28;;;;;;;33.35;23.83;;;;;;;;;;5077182;28;20472;-80
2023/04/09 11:15:55;;;;;;;32.17;23.42;;;;;;;;;;5060033;28;20402;-80
2023/04/09 11:18:28;;;;;;;32.50;24.23;;;;;;;;;;5060680;28;20402;-80
2023/04/09 11:20:56;;;;;;;32.50;23.50;;;12.20;99.90;;;;;;5094922;28;20916;-80
2023/04/09 11:23:25;;;;;;;32.25;23.10;;;;;;;;;;5060968;28;20412;-79
2023/04/09 11:25:52;;;;;;;30.67;22.98;;;;;;;;;;5076532;28;20414;-80
2023/04/09 11:28:18;;;;;;;32.15;23.10;;;;;;;;;;5059962;28;20398;-80
2023/04/09 11:30:45;;;;;;;32.22;23.25;;;;;;;;;;5076948;28;20741;-80
2023/04/09 11:33:11;;;;;;;31.05;23.10;;;;;;;;;;5059819;28;20897;-80
2023/04/09 11:35:40;;;;;;;31.90;22.83;;;;;;;;;;5061001;28;20404;-80
2023/04/09 11:38:12;;;;;;;30.15;22.30;;;;;;;;;;5060092;28;20406;-81
2023/04/09 11:40:46;;;;;;;30.58;22.08;;;;;;;;;;5076701;28;20808;-80
2023/04/09 11:43:15;;;;;;;29.85;22.02;;;;;;;;;;5076721;28;20416;-80
2023/04/09 11:45:41;;;;;;;29.17;21.23;;;;;;;;;;5076676;28;20486;-81
2023/04/09 11:48:07;;;;;;;28.92;21.77;;;;;;;;;;5076855;28;20783;-80
2023/04/09 11:50:34;;;;;;;28.90;21.10;;;;;;;;;;5060204;28;20398;-81
2023/04/09 11:53:00;;;;;;;28.15;20.60;;;;;;;;;;5076837;28;20429;-79
2023/04/09 11:55:29;;;;;;;28.38;21.45;;;;;;;;;;5060574;28;20413;-80
2023/04/09 11:58:00;;;;;;;27.13;20.97;;;13.10;99.90;;;;;;5076431;28;20481;-81
2023/04/09 12:00:26;;;;;;;28.10;20.63;;;;;;;;;;5109844;28;20394;-79
2023/04/09 12:03:02;;;;;;;27.35;20.38;;;;;;;;;;5059418;28;20402;-78
2023/04/09 12:05:30;;;;;;;26.42;19.55;;;14.10;99.90;;;;;;5059608;28;20402;-79
2023/04/09 12:08:00;;;;;;;28.90;20.50;;;;;;;;;;5058881;28;20405;-79
2023/04/09 12:10:32;;;;;;;27.33;20.75;;;14.30;99.90;;;;;;5075533;28;20402;-79
2023/04/09 12:13:05;;;;;;;26.40;19.48;;;14.80;99.90;;;;;;5109532;28;20786;-79
2023/04/09 12:15:33;;;;;;;25.42;19.75;;;14.90;99.90;;;;;;5075722;28;20913;-79
2023/04/09 12:17:59;;;;;;;25.08;19.35;;;;;;;;;;5076107;28;20390;-79
2023/04/09 12:20:30;;;;;;;25.75;19.95;;;14.10;99.90;;;;;;5059347;28;20422;-80
2023/04/09 12:22:58;;;;;;;26.38;20.23;;;14.10;99.90;;;;;;5093577;28;20500;-80
2023/04/09 12:25:25;;;;;;;26.63;19.48;;;;;;;;;;5075795;28;20422;-87
2023/04/09 12:27:51;;;;;;;24.55;19.00;;;;;;;;;;5076654;28;20402;-88
2023/04/09 12:30:17;;;;;;;25.90;19.25;;;;;;;;;;5076812;28;20404;-89
2023/04/09 12:32:44;;;;;;;22.55;17.05;;;;;;;;;;5059614;28;20475;-85
2023/04/09 12:35:11;;;;;;;21.30;17.25;;;;;;;;;;5059845;28;20789;-88
2023/04/09 12:37:37;;;;;;;21.90;16.65;;;;;;;;;;5076898;28;20437;-88
2023/04/09 12:40:03;;;;;;;22.75;17.20;;;;;;;;;;5059861;28;20484;-87
2023/04/09 12:42:29;;;;;;;22.33;17.37;;;;;;;;;;5077557;28;20429;-89
2023/04/09 12:44:56;;;;;;;22.60;17.45;;;;;;;;;;5076597;28;20433;-88
2023/04/09 12:47:22;;;;;;;21.88;16.77;;;;;;;;;;5060324;28;20406;-88
2023/04/09 12:49:49;;;;;;;21.05;16.33;;;;;;;;;;5077138;28;20398;-88
2023/04/09 12:52:17;;;;;;;20.67;17.05;;;;;;;;;;5076810;28;20422;-87
2023/04/09 12:54:43;;;;;;;21.15;16.83;;;;;;;;;;5060173;28;20936;-87
2023/04/09 12:57:10;;;;;;;22.10;17.10;;;;;;;;;;5076546;28;20686;-87
2023/04/09 12:59:36;;;;;;;22.55;17.73;;;;;;;;;;5075940;28;20409;-87
2023/04/09 13:02:02;;;;;;;22.42;17.48;;;;;;;;;;5076314;28;20480;-86
2023/04/09 13:04:28;;;;;;;20.45;17.23;;;;;;;;;;5059661;28;20409;-88
2023/04/09 13:06:57;;;;;;;20.40;16.30;;;;;;;;;;5076037;28;20433;-88
2023/04/09 13:09:24;;;;;;;20.77;15.98;;;;;;;;;;5059099;28;20405;-87
2023/04/09 13:11:50;;;;;;;19.33;16.02;;;;;;;;;;5076135;28;20425;-87
2023/04/09 13:14:17;;;;;;;20.05;14.85;;;;;;;;;;5076112;28;20502;-87
2023/04/09 13:16:43;;;;;;;18.73;15.18;;;;;;;;;;5075595;28;20912;-87
2023/04/09 13:19:09;;;;;;;21.00;16.50;;;;;;;;;;5059157;28;20402;-86
2023/04/09 13:21:35;;;;;;;19.97;15.87;;;;;;;;;;5074799;28;20878;-85
2023/04/09 13:24:02;;;;;;;20.52;15.88;;;;;;;;;;5059110;28;20413;-86
2023/04/09 13:26:29;;;;;;;19.90;14.63;;;;;;;;;;5075406;28;20466;-86
2023/04/09 13:28:55;;;;;;;20.67;15.33;;;;;;;;;;5058831;28;20489;-87
2023/04/09 13:31:21;;;;;;;20.23;15.50;;;;;;;;;;5058828;28;20944;-87
2023/04/09 13:33:47;;;;;;;20.48;16.05;;;;;;;;;;5075313;28;20398;-86
2023/04/09 13:36:13;;;;;;;21.05;15.80;;;;;;;;;;5058428;28;20405;-86
2023/04/09 13:38:39;;;;;;;20.42;15.27;;;;;;;;;;5058740;28;20405;-86
2023/04/09 13:41:05;;;;;;;20.25;16.25;;;;;;;;;;5079812;28;20437;-85
2023/04/09 13:43:31;;;;;;;20.60;15.37;;;;;;;;;;5078411;28;20398;-87
2023/04/09 13:45:57;;;;;;;20.70;16.23;;;;;;;;;;5075446;28;20408;-85
2023/04/09 13:48:24;;;;;;;20.40;15.65;;;;;;;;;;5058656;28;20794;-86
2023/04/09 13:50:50;;;;;;;22.58;16.35;;;;;;;;;;5058891;28;20398;-86
2023/04/09 13:53:16;;;;;;;21.97;16.00;;;;;;;;;;5074905;28;20424;-86
2023/04/09 13:55:45;;;;;;;20.00;15.32;;;;;;;;;;5058195;28;20434;-86
2023/04/09 13:58:11;;;;;;;21.02;15.55;;;;;;;;;;5058387;28;20402;-87
2023/04/09 14:00:37;;;;;;;19.17;15.40;;;;;;;;;;5058854;28;20836;-86
2023/04/09 14:03:04;;;;;;;21.00;15.90;;;;;;;;;;5074910;28;20890;-86
2023/04/09 14:05:31;;;;;;;20.23;15.30;;;;;;;;;;5058854;28;20499;-86
2023/04/09 14:07:58;;;;;;;20.50;15.70;;;;;;;;;;5058783;28;20725;-86
2023/04/09 14:10:24;;;;;;;20.88;16.25;;;;;;;;;;5058598;28;20469;-86
2023/04/09 14:12:50;;;;;;;22.13;16.23;;;;;;;;;;5057905;28;20988;-85
2023/04/09 14:15:16;;;;;;;23.92;17.95;;;;;;;;;;5074859;28;20422;-86